createdAt,value
2018-02-10T00:01:01.925Z,0
2018-02-10T00:02:12.026Z,0
2018-02-10T00:03:22.118Z,0
2018-02-10T00:04:32.186Z,0
2018-02-10T00:05:42.023Z,0
2018-02-10T00:06:51.816Z,0
2018-02-10T00:08:01.616Z,0
2018-02-10T00:09:11.686Z,0
2018-02-10T00:10:21.747Z,0
2018-02-10T00:11:31.289Z,0
2018-02-10T00:12:41.090Z,0
2018-02-10T00:13:51.171Z,0
2018-02-10T00:15:01.223Z,0
2018-02-10T00:16:11.274Z,0
2018-02-10T00:17:21.467Z,0
2018-02-10T00:18:31.580Z,0
2018-02-10T00:19:41.394Z,0
2018-02-10T00:20:51.450Z,0
2018-02-10T00:22:01.495Z,0
2018-02-10T00:23:11.290Z,0
2018-02-10T00:24:21.081Z,0
2018-02-10T00:25:30.874Z,0
2018-02-10T00:26:40.922Z,0
2018-02-10T00:27:50.716Z,0
2018-02-10T00:29:00.754Z,0
2018-02-10T00:30:10.827Z,0
2018-02-10T00:31:20.898Z,0
2018-02-10T00:32:30.943Z,0
2018-02-10T00:33:41.005Z,0
2018-02-10T00:34:51.058Z,0
2018-02-10T00:36:01.355Z,0
2018-02-10T00:37:11.488Z,0
2018-02-10T00:38:21.543Z,0
2018-02-10T00:39:31.598Z,0
2018-02-10T00:40:41.379Z,0
2018-02-10T00:41:51.160Z,0
2018-02-10T00:43:00.959Z,0
2018-02-10T00:44:11.002Z,0
2018-02-10T00:45:21.054Z,0
2018-02-10T00:46:31.099Z,0
2018-02-10T00:47:40.931Z,0
2018-02-10T00:48:50.970Z,0
2018-02-10T00:50:01.024Z,0
2018-02-10T00:51:11.071Z,0
2018-02-10T00:52:20.850Z,0
2018-02-10T00:53:30.893Z,0
2018-02-10T00:54:40.935Z,0
2018-02-10T00:55:50.704Z,0
2018-02-10T00:57:00.496Z,0
2018-02-10T00:58:10.610Z,0
2018-02-10T00:59:20.660Z,0
2018-02-10T01:00:30.712Z,0
2018-02-10T01:01:40.757Z,0
2018-02-10T01:02:50.540Z,0
2018-02-10T01:04:00.596Z,0
2018-02-10T01:05:10.645Z,0
2018-02-10T01:06:20.733Z,0
2018-02-10T01:07:30.786Z,0
2018-02-10T01:08:40.573Z,0
2018-02-10T01:09:50.356Z,0
2018-02-10T01:11:00.417Z,0
2018-02-10T01:12:10.508Z,0
2018-02-10T01:13:20.042Z,0
2018-02-10T01:14:30.092Z,0
2018-02-10T01:15:39.888Z,0
2018-02-10T01:16:49.670Z,0
2018-02-10T01:17:59.497Z,0
2018-02-10T01:19:09.288Z,0
2018-02-10T01:20:19.341Z,0
2018-02-10T01:21:29.382Z,0
2018-02-10T01:22:39.470Z,0
2018-02-10T01:23:49.308Z,0
2018-02-10T01:24:59.088Z,0
2018-02-10T01:26:09.121Z,0
2018-02-10T01:27:19.172Z,0
2018-02-10T01:28:28.960Z,0
2018-02-10T01:29:39.061Z,0
2018-02-10T01:30:49.117Z,0
2018-02-10T01:31:58.644Z,0
2018-02-10T01:33:08.430Z,0
2018-02-10T01:34:18.206Z,0
2018-02-10T01:35:28.040Z,0
2018-02-10T01:36:38.084Z,0
2018-02-10T01:37:48.138Z,0
2018-02-10T01:38:57.919Z,0
2018-02-10T01:40:07.973Z,0
2018-02-10T01:41:18.028Z,0
2018-02-10T01:42:28.065Z,0
2018-02-10T01:43:38.101Z,0
2018-02-10T01:44:47.881Z,0
2018-02-10T01:45:57.927Z,0
2018-02-10T01:47:07.976Z,0
2018-02-10T01:48:17.823Z,0
2018-02-10T01:49:27.862Z,0
2018-02-10T01:50:37.919Z,0
2018-02-10T01:51:47.502Z,0
2018-02-10T01:52:57.554Z,0
2018-02-10T01:54:07.608Z,0
2018-02-10T01:55:17.665Z,0
2018-02-10T01:56:28.260Z,0
2018-02-10T01:57:38.049Z,0
2018-02-10T01:58:48.079Z,0
2018-02-10T01:59:58.175Z,0
2018-02-10T02:01:08.231Z,0
2018-02-10T02:02:18.016Z,0
2018-02-10T02:03:27.857Z,0
2018-02-10T02:04:37.626Z,0
2018-02-10T02:05:47.404Z,0
2018-02-10T02:06:57.463Z,0
2018-02-10T02:08:07.478Z,0
2018-02-10T02:09:17.515Z,0
2018-02-10T02:10:27.614Z,0
2018-02-10T02:11:37.394Z,0
2018-02-10T02:12:47.458Z,0
2018-02-10T02:13:57.506Z,0
2018-02-10T02:15:07.564Z,0
2018-02-10T02:16:17.597Z,0
2018-02-10T02:17:27.664Z,0
2018-02-10T02:18:37.730Z,0
2018-02-10T02:19:47.776Z,0
2018-02-10T02:20:57.818Z,0
2018-02-10T02:22:07.868Z,0
2018-02-10T02:23:17.641Z,0
2018-02-10T02:24:27.688Z,0
2018-02-10T02:25:37.459Z,0
2018-02-10T02:26:47.247Z,0
2018-02-10T02:27:57.027Z,0
2018-02-10T02:29:07.059Z,0
2018-02-10T02:30:17.122Z,0
2018-02-10T02:31:26.911Z,0
2018-02-10T02:32:36.723Z,0
2018-02-10T02:33:46.823Z,0
2018-02-10T02:34:56.922Z,0
2018-02-10T02:36:06.998Z,0
2018-02-10T02:37:17.052Z,0
2018-02-10T02:38:26.842Z,0
2018-02-10T02:39:36.886Z,0
2018-02-10T02:40:46.924Z,0
2018-02-10T02:41:56.709Z,0
2018-02-10T02:43:06.771Z,0
2018-02-10T02:44:16.296Z,0
2018-02-10T02:45:26.093Z,0
2018-02-10T02:46:36.130Z,0
2018-02-10T02:47:45.936Z,0
2018-02-10T02:48:55.485Z,0
2018-02-10T02:50:05.281Z,0
2018-02-10T02:51:15.119Z,0
2018-02-10T02:52:24.906Z,0
2018-02-10T02:53:34.941Z,0
2018-02-10T02:54:44.740Z,0
2018-02-10T02:55:54.864Z,0
2018-02-10T02:57:04.942Z,0
2018-02-10T02:58:15.058Z,0
2018-02-10T02:59:25.109Z,0
2018-02-10T03:00:35.158Z,0
2018-02-10T03:01:44.945Z,0
2018-02-10T03:02:54.982Z,0
2018-02-10T03:04:05.031Z,0
2018-02-10T03:35:41.659Z,0
2018-02-10T03:36:51.747Z,0
2018-02-10T03:38:01.803Z,0
2018-02-10T03:39:11.064Z,0
2018-02-10T03:40:21.183Z,0
2018-02-10T03:41:31.235Z,0
2018-02-10T03:42:41.268Z,0
2018-02-10T03:43:51.317Z,0
2018-02-10T03:45:01.109Z,0
2018-02-10T03:46:11.150Z,0
2018-02-10T03:47:21.204Z,0
2018-02-10T03:48:31.239Z,0
2018-02-10T03:49:41.286Z,0
2018-02-10T03:50:51.333Z,0
2018-02-10T03:52:01.378Z,0
2018-02-10T03:53:11.410Z,0
2018-02-10T03:54:21.453Z,0
2018-02-10T03:55:31.238Z,0
2018-02-10T03:56:41.030Z,0
2018-02-10T03:57:51.098Z,0
2018-02-10T03:59:00.925Z,0
2018-02-10T04:00:10.707Z,0
2018-02-10T04:01:20.733Z,0
2018-02-10T04:02:30.775Z,0
2018-02-10T04:03:40.554Z,0
2018-02-10T04:04:50.643Z,0
2018-02-10T04:06:00.695Z,0
2018-02-10T04:07:10.753Z,0
2018-02-10T04:08:20.800Z,0
2018-02-10T04:09:30.835Z,0
2018-02-10T04:10:40.624Z,0
2018-02-10T04:11:50.678Z,0
2018-02-10T04:13:00.953Z,0
2018-02-10T04:14:10.997Z,0
2018-02-10T04:15:21.116Z,0
2018-02-10T04:16:31.156Z,0
2018-02-10T04:17:40.961Z,0
2018-02-10T04:18:50.793Z,0
2018-02-10T04:20:00.319Z,0
2018-02-10T04:21:10.355Z,0
2018-02-10T04:22:20.404Z,0
2018-02-10T04:23:30.181Z,0
2018-02-10T04:24:39.968Z,0
2018-02-10T04:25:50.009Z,0
2018-02-10T04:27:00.059Z,0
2018-02-10T04:28:10.385Z,0
2018-02-10T04:29:19.950Z,0
2018-02-10T04:30:29.988Z,0
2018-02-10T04:31:40.029Z,0
2018-02-10T04:32:50.111Z,0
2018-02-10T04:34:00.202Z,0
2018-02-10T04:35:10.245Z,0
2018-02-10T04:36:20.031Z,0
2018-02-10T04:37:29.809Z,0
2018-02-10T04:38:39.853Z,0
2018-02-10T04:39:49.637Z,0
2018-02-10T04:40:59.162Z,0
2018-02-10T04:42:09.207Z,0
2018-02-10T04:43:19.238Z,0
2018-02-10T04:44:29.287Z,0
2018-02-10T04:45:39.330Z,0
2018-02-10T04:46:49.113Z,0
2018-02-10T04:47:59.154Z,0
2018-02-10T04:49:09.189Z,0
2018-02-10T04:50:19.242Z,0
2018-02-10T04:51:29.279Z,0
2018-02-10T04:52:39.064Z,0
2018-02-10T04:53:48.898Z,0
2018-02-10T04:54:58.691Z,0
2018-02-10T04:56:08.732Z,0
2018-02-10T04:57:18.783Z,0
2018-02-10T04:58:28.847Z,0
2018-02-10T04:59:38.878Z,0
2018-02-10T05:00:48.695Z,0
2018-02-10T05:01:58.728Z,0
2018-02-10T05:03:08.562Z,0
2018-02-10T05:04:18.607Z,0
2018-02-10T05:05:28.385Z,0
2018-02-10T05:06:38.171Z,0
2018-02-10T05:07:48.233Z,0
2018-02-10T05:08:58.325Z,0
2018-02-10T05:10:08.388Z,0
2018-02-10T05:11:18.456Z,0
2018-02-10T05:12:28.506Z,0
2018-02-10T05:13:38.552Z,0
2018-02-10T05:14:48.593Z,0
2018-02-10T05:15:58.635Z,0
2018-02-10T05:17:08.672Z,0
2018-02-10T05:18:18.950Z,0
2018-02-10T05:19:28.988Z,0
2018-02-10T05:20:39.028Z,0
2018-02-10T05:21:49.071Z,0
2018-02-10T05:22:58.847Z,0
2018-02-10T05:24:08.893Z,0
2018-02-10T05:25:18.931Z,0
2018-02-10T05:26:28.953Z,0
2018-02-10T05:27:38.734Z,0
2018-02-10T05:28:48.519Z,0
2018-02-10T05:29:58.567Z,0
2018-02-10T05:31:08.603Z,0
2018-02-10T05:32:18.682Z,0
2018-02-10T05:33:28.733Z,0
2018-02-10T05:34:38.520Z,0
2018-02-10T05:35:48.575Z,0
2018-02-10T05:36:58.625Z,0
2018-02-10T05:38:08.424Z,0
2018-02-10T05:39:18.209Z,0
2018-02-10T05:40:28.008Z,0
2018-02-10T05:41:37.796Z,0
2018-02-10T05:42:47.838Z,0
2018-02-10T05:43:57.879Z,0
2018-02-10T05:45:07.661Z,0
2018-02-10T05:46:17.443Z,0
2018-02-10T05:47:27.511Z,0
2018-02-10T05:48:37.556Z,0
2018-02-10T05:49:47.689Z,0
2018-02-10T05:50:57.483Z,0
2018-02-10T05:52:07.276Z,0
2018-02-10T05:53:17.325Z,0
2018-02-10T05:54:27.365Z,0
2018-02-10T05:55:37.151Z,0
2018-02-10T05:56:46.951Z,0
2018-02-10T05:57:56.991Z,0
2018-02-10T05:59:07.012Z,0
2018-02-10T06:00:17.058Z,0
2018-02-10T06:01:26.845Z,0
2018-02-10T06:02:36.625Z,0
2018-02-10T06:03:46.690Z,0
2018-02-10T06:04:56.749Z,0
2018-02-10T06:06:06.278Z,0
2018-02-10T06:07:15.815Z,0
2018-02-10T06:08:25.845Z,0
2018-02-10T06:09:35.897Z,0
2018-02-10T06:10:45.778Z,0
2018-02-10T06:11:55.825Z,0
2018-02-10T06:13:05.887Z,0
2018-02-10T06:14:15.934Z,0
2018-02-10T06:15:25.983Z,0
2018-02-10T06:16:36.014Z,0
2018-02-10T06:17:45.535Z,0
2018-02-10T06:18:55.327Z,0
2018-02-10T06:20:04.845Z,0
2018-02-10T06:21:14.884Z,0
2018-02-10T06:22:24.922Z,0
2018-02-10T06:23:34.704Z,0
2018-02-10T06:24:44.490Z,0
2018-02-10T06:25:54.267Z,0
2018-02-10T06:27:04.293Z,5
2018-02-10T06:28:14.070Z,5
2018-02-10T06:29:24.121Z,5
2018-02-10T06:30:34.165Z,5
2018-02-10T06:31:44.229Z,5
2018-02-10T06:32:54.270Z,5
2018-02-10T06:34:04.375Z,5
2018-02-10T06:35:14.473Z,5
2018-02-10T06:36:24.529Z,5
2018-02-10T06:37:34.310Z,5
2018-02-10T06:38:44.376Z,5
2018-02-10T06:39:54.152Z,5
2018-02-10T06:41:04.193Z,5
2018-02-10T06:42:13.978Z,5
2018-02-10T06:43:23.779Z,5
2018-02-10T06:44:33.574Z,5
2018-02-10T06:45:43.097Z,5
2018-02-10T06:46:53.140Z,10
2018-02-10T06:48:02.917Z,10
2018-02-10T06:49:12.437Z,10
2018-02-10T06:50:22.479Z,10
2018-02-10T06:51:32.528Z,10
2018-02-10T06:52:42.584Z,10
2018-02-10T06:53:52.634Z,10
2018-02-10T06:55:02.434Z,10
2018-02-10T06:56:12.197Z,10
2018-02-10T06:57:22.270Z,10
2018-02-10T06:58:32.312Z,10
2018-02-10T06:59:42.358Z,10
2018-02-10T07:00:52.415Z,10
2018-02-10T07:02:02.202Z,10
2018-02-10T07:03:12.245Z,15
2018-02-10T07:04:22.282Z,15
2018-02-10T07:05:32.342Z,15
2018-02-10T07:06:42.467Z,15
2018-02-10T07:07:52.001Z,15
2018-02-10T07:09:02.061Z,15
2018-02-10T07:10:11.861Z,15
2018-02-10T07:11:21.690Z,15
2018-02-10T07:12:31.458Z,15
2018-02-10T07:13:41.498Z,15
2018-02-10T07:14:51.536Z,15
2018-02-10T07:16:01.568Z,20
2018-02-10T07:17:11.599Z,20
2018-02-10T07:18:21.635Z,20
2018-02-10T07:19:31.164Z,20
2018-02-10T07:20:41.256Z,20
2018-02-10T07:21:51.292Z,20
2018-02-10T07:23:01.338Z,20
2018-02-10T07:24:11.123Z,20
2018-02-10T07:25:21.232Z,25
2018-02-10T07:26:31.288Z,25
2018-02-10T07:27:41.331Z,25
2018-02-10T07:28:51.428Z,25
2018-02-10T07:30:01.473Z,25
2018-02-10T07:31:11.261Z,30
2018-02-10T07:32:21.301Z,30
2018-02-10T07:33:31.341Z,30
2018-02-10T07:34:41.110Z,30
2018-02-10T07:35:51.138Z,30
2018-02-10T07:37:01.190Z,30
2018-02-10T07:38:10.986Z,30
2018-02-10T07:39:20.768Z,30
2018-02-10T07:40:30.808Z,30
2018-02-10T07:41:40.873Z,35
2018-02-10T07:42:50.667Z,35
2018-02-10T07:44:00.710Z,35
2018-02-10T07:45:10.501Z,35
2018-02-10T07:46:20.345Z,35
2018-02-10T07:47:30.395Z,40
2018-02-10T07:48:39.933Z,35
2018-02-10T07:49:49.989Z,40
2018-02-10T07:50:59.781Z,40
2018-02-10T07:52:09.873Z,40
2018-02-10T07:53:19.926Z,40
2018-02-10T07:54:29.709Z,40
2018-02-10T07:55:39.757Z,40
2018-02-10T07:56:49.818Z,40
2018-02-10T07:57:59.856Z,40
2018-02-10T07:59:09.899Z,40
2018-02-10T08:00:19.968Z,40
2018-02-10T08:01:30.029Z,40
2018-02-10T08:02:40.089Z,40
2018-02-10T08:03:49.931Z,40
2018-02-10T08:04:59.738Z,40
2018-02-10T08:06:09.774Z,40
2018-02-10T08:07:19.860Z,40
2018-02-10T08:08:29.380Z,40
2018-02-10T08:09:38.935Z,40
2018-02-10T08:10:49.001Z,40
2018-02-10T08:11:59.046Z,40
2018-02-10T08:13:08.827Z,40
2018-02-10T08:14:18.885Z,40
2018-02-10T08:15:28.681Z,40
2018-02-10T08:16:38.734Z,40
2018-02-10T08:17:48.510Z,40
2018-02-10T08:18:58.283Z,40
2018-02-10T08:20:08.329Z,40
2018-02-10T08:21:18.391Z,40
2018-02-10T08:22:28.447Z,40
2018-02-10T08:23:38.234Z,45
2018-02-10T08:24:48.276Z,45
2018-02-10T08:25:58.382Z,45
2018-02-10T08:27:08.486Z,45
2018-02-10T08:28:18.285Z,40
2018-02-10T08:29:28.086Z,40
2018-02-10T08:30:37.880Z,40
2018-02-10T08:31:47.662Z,40
2018-02-10T08:32:57.743Z,40
2018-02-10T08:34:07.797Z,40
2018-02-10T08:35:17.847Z,45
2018-02-10T08:36:27.638Z,45
2018-02-10T08:37:37.413Z,45
2018-02-10T08:38:47.261Z,50
2018-02-10T08:39:57.058Z,50
2018-02-10T08:41:06.826Z,50
2018-02-10T08:42:16.907Z,55
2018-02-10T08:43:26.454Z,55
2018-02-10T08:44:36.502Z,55
2018-02-10T08:45:46.287Z,55
2018-02-10T08:46:56.332Z,60
2018-02-10T08:48:06.375Z,60
2018-02-10T08:49:16.411Z,60
2018-02-10T08:50:26.463Z,65
2018-02-10T08:51:36.252Z,65
2018-02-10T08:52:46.305Z,70
2018-02-10T08:53:56.095Z,70
2018-02-10T08:55:05.882Z,70
2018-02-10T08:56:15.420Z,70
2018-02-10T08:57:25.468Z,70
2018-02-10T08:58:35.517Z,75
2018-02-10T08:59:45.569Z,75
2018-02-10T09:00:55.360Z,80
2018-02-10T09:02:05.457Z,80
2018-02-10T09:03:15.511Z,75
2018-02-10T09:04:25.295Z,75
2018-02-10T09:05:35.104Z,75
2018-02-10T09:06:45.156Z,75
2018-02-10T09:07:54.962Z,75
2018-02-10T09:09:05.015Z,75
2018-02-10T09:10:15.075Z,75
2018-02-10T09:11:25.119Z,80
2018-02-10T09:12:35.154Z,80
2018-02-10T09:13:44.942Z,80
2018-02-10T09:14:54.739Z,80
2018-02-10T09:16:04.518Z,75
2018-02-10T09:17:14.575Z,75
2018-02-10T09:18:24.632Z,70
2018-02-10T09:19:34.425Z,75
2018-02-10T09:20:44.469Z,75
2018-02-10T09:21:54.542Z,75
2018-02-10T09:23:04.346Z,70
2018-02-10T09:24:14.382Z,65
2018-02-10T09:25:24.435Z,70
2018-02-10T09:26:34.481Z,75
2018-02-10T09:27:44.298Z,80
2018-02-10T09:28:54.360Z,80
2018-02-10T09:30:04.153Z,75
2018-02-10T09:31:13.949Z,75
2018-02-10T09:32:24.010Z,75
2018-02-10T09:33:33.265Z,75
2018-02-10T09:34:43.312Z,70
2018-02-10T09:35:53.123Z,70
2018-02-10T09:37:03.184Z,70
2018-02-10T09:38:12.978Z,70
2018-02-10T09:39:23.043Z,65
2018-02-10T09:40:33.101Z,60
2018-02-10T09:41:42.632Z,60
2018-02-10T09:42:52.428Z,55
2018-02-10T09:44:02.490Z,50
2018-02-10T09:45:12.378Z,50
2018-02-10T09:46:22.430Z,50
2018-02-10T09:47:32.273Z,50
2018-02-10T09:48:42.322Z,55
2018-02-10T09:49:52.126Z,55
2018-02-10T09:51:02.202Z,55
2018-02-10T09:52:12.067Z,60
2018-02-10T09:53:22.112Z,70
2018-02-10T09:54:32.181Z,75
2018-02-10T09:55:41.988Z,80
2018-02-10T09:56:52.032Z,80
2018-02-10T09:58:02.077Z,80
2018-02-10T09:59:11.648Z,80
2018-02-10T10:00:21.695Z,80
2018-02-10T10:01:31.230Z,80
2018-02-10T10:02:41.004Z,80
2018-02-10T10:03:51.101Z,80
2018-02-10T10:05:01.172Z,80
2018-02-10T10:06:11.035Z,80
2018-02-10T10:07:21.099Z,80
2018-02-10T10:08:31.153Z,80
2018-02-10T10:09:40.700Z,80
2018-02-10T10:10:50.754Z,75
2018-02-10T10:12:00.809Z,75
2018-02-10T10:13:10.618Z,70
2018-02-10T10:14:20.654Z,70
2018-02-10T10:15:30.462Z,80
2018-02-10T10:16:40.589Z,75
2018-02-10T10:17:50.373Z,80
2018-02-10T10:19:00.449Z,75
2018-02-10T10:20:10.495Z,70
2018-02-10T10:21:20.612Z,70
2018-02-10T10:22:30.417Z,75
2018-02-10T10:23:40.463Z,70
2018-02-10T10:24:50.508Z,65
2018-02-10T10:26:00.602Z,65
2018-02-10T10:27:10.385Z,70
2018-02-10T10:28:41.006Z,70
2018-02-10T10:29:50.777Z,70
2018-02-10T10:31:00.831Z,70
2018-02-10T10:32:10.629Z,70
2018-02-10T10:33:20.661Z,70
2018-02-10T10:34:30.464Z,70
2018-02-10T10:35:40.246Z,75
2018-02-10T10:36:50.369Z,80
2018-02-10T10:38:00.166Z,80
2018-02-10T10:39:09.966Z,80
2018-02-10T10:40:20.051Z,80
2018-02-10T10:41:29.881Z,80
2018-02-10T10:42:39.680Z,80
2018-02-10T10:43:49.812Z,80
2018-02-10T10:44:59.607Z,80
2018-02-10T10:46:09.712Z,80
2018-02-10T10:47:19.801Z,80
2018-02-10T10:48:29.863Z,80
2018-02-10T10:49:39.934Z,80
2018-02-10T10:50:50.009Z,80
2018-02-10T10:52:00.128Z,85
2018-02-10T10:53:09.916Z,85
2018-02-10T10:54:19.714Z,85
2018-02-10T10:55:29.757Z,85
2018-02-10T10:56:39.802Z,80
2018-02-10T10:57:49.631Z,80
2018-02-10T10:58:59.677Z,80
2018-02-10T11:00:09.723Z,80
2018-02-10T11:01:19.518Z,85
2018-02-10T11:02:29.315Z,85
2018-02-10T11:03:39.371Z,85
2018-02-10T11:04:49.168Z,85
2018-02-10T11:05:59.209Z,85
2018-02-10T11:07:09.030Z,80
2018-02-10T11:08:18.830Z,80
2018-02-10T11:09:28.878Z,80
2018-02-10T11:10:38.937Z,80
2018-02-10T11:11:49.018Z,80
2018-02-10T11:12:59.225Z,85
2018-02-10T11:14:09.077Z,85
2018-02-10T11:15:19.175Z,85
2018-02-10T11:16:29.232Z,80
2018-02-10T11:17:39.274Z,80
2018-02-10T11:18:49.334Z,80
2018-02-10T11:19:59.131Z,80
2018-02-10T11:21:09.235Z,80
2018-02-10T11:22:19.428Z,80
2018-02-10T11:23:29.209Z,80
2018-02-10T11:24:39.283Z,80
2018-02-10T11:25:49.365Z,80
2018-02-10T11:26:59.450Z,80
2018-02-10T11:28:09.522Z,85
2018-02-10T11:29:19.319Z,80
2018-02-10T11:30:29.372Z,80
2018-02-10T11:31:39.418Z,80
2018-02-10T11:32:49.523Z,80
2018-02-10T11:33:59.592Z,80
2018-02-10T11:35:09.455Z,80
2018-02-10T11:36:19.280Z,80
2018-02-10T11:37:29.364Z,85
2018-02-10T11:38:39.436Z,80
2018-02-10T11:39:49.569Z,80
2018-02-10T11:40:59.356Z,80
2018-02-10T11:42:09.409Z,80
2018-02-10T11:43:19.468Z,80
2018-02-10T11:44:29.594Z,80
2018-02-10T11:45:39.400Z,80
2018-02-10T11:46:49.466Z,80
2018-02-10T11:47:59.269Z,80
2018-02-10T11:49:09.412Z,80
2018-02-10T11:50:19.470Z,80
2018-02-10T11:51:29.525Z,80
2018-02-10T11:52:39.853Z,80
2018-02-10T11:53:50.025Z,80
2018-02-10T11:55:00.084Z,80
2018-02-10T11:56:10.138Z,80
2018-02-10T11:57:20.202Z,75
2018-02-10T11:58:30.253Z,75
2018-02-10T11:59:40.379Z,75
2018-02-10T12:00:50.170Z,75
2018-02-10T12:02:00.239Z,75
2018-02-10T12:03:10.303Z,70
2018-02-10T12:04:20.373Z,70
2018-02-10T12:05:30.219Z,70
2018-02-10T12:06:40.042Z,70
2018-02-10T12:07:50.102Z,70
2018-02-10T12:09:00.173Z,70
2018-02-10T12:10:10.226Z,70
2018-02-10T12:11:20.293Z,65
2018-02-10T12:12:30.351Z,65
2018-02-10T12:13:40.447Z,65
2018-02-10T12:14:50.497Z,65
2018-02-10T12:16:00.301Z,65
2018-02-10T12:17:10.376Z,65
2018-02-10T12:18:20.177Z,65
2018-02-10T12:19:30.237Z,65
2018-02-10T12:20:40.541Z,65
2018-02-10T12:21:50.612Z,65
2018-02-10T12:23:00.401Z,60
2018-02-10T12:24:10.198Z,60
2018-02-10T12:25:20.042Z,60
2018-02-10T12:26:30.150Z,55
2018-02-10T12:27:39.683Z,50
2018-02-10T12:28:49.745Z,50
2018-02-10T12:29:59.817Z,50
2018-02-10T12:31:09.867Z,50
2018-02-10T12:32:19.930Z,50
2018-02-10T12:33:29.719Z,50
2018-02-10T12:34:39.774Z,45
2018-02-10T12:35:49.563Z,45
2018-02-10T12:36:59.629Z,45
2018-02-10T12:38:09.732Z,45
2018-02-10T12:39:19.779Z,45
2018-02-10T12:40:29.979Z,45
2018-02-10T12:41:40.030Z,45
2018-02-10T12:42:49.879Z,45
2018-02-10T12:43:59.928Z,45
2018-02-10T12:45:09.997Z,45
2018-02-10T12:46:20.045Z,45
2018-02-10T12:47:29.850Z,45
2018-02-10T12:48:39.649Z,45
2018-02-10T12:49:49.768Z,45
2018-02-10T12:50:59.900Z,45
2018-02-10T12:52:09.965Z,45
2018-02-10T12:53:20.037Z,45
2018-02-10T12:54:30.144Z,45
2018-02-10T12:55:40.192Z,45
2018-02-10T12:56:50.257Z,45
2018-02-10T12:58:00.301Z,45
2018-02-10T12:59:10.090Z,45
2018-02-10T13:00:20.196Z,45
2018-02-10T13:01:30.238Z,45
2018-02-10T13:02:40.028Z,45
2018-02-10T13:03:50.079Z,45
2018-02-10T13:04:59.879Z,45
2018-02-10T13:06:09.499Z,45
2018-02-10T13:07:19.550Z,45
2018-02-10T13:08:29.333Z,45
2018-02-10T13:09:39.395Z,45
2018-02-10T13:10:49.232Z,45
2018-02-10T13:11:59.292Z,45
2018-02-10T13:13:09.362Z,45
2018-02-10T13:14:19.413Z,45
2018-02-10T13:15:29.472Z,45
2018-02-10T13:16:39.559Z,45
2018-02-10T13:17:49.406Z,40
2018-02-10T13:18:59.518Z,40
2018-02-10T13:20:09.318Z,40
2018-02-10T13:21:19.114Z,40
2018-02-10T13:22:29.184Z,45
2018-02-10T13:23:39.253Z,40
2018-02-10T13:24:49.044Z,40
2018-02-10T13:25:59.132Z,40
2018-02-10T13:27:09.238Z,40
2018-02-10T13:28:19.303Z,40
2018-02-10T13:29:29.375Z,40
2018-02-10T13:30:39.433Z,35
2018-02-10T13:31:49.498Z,35
2018-02-10T13:32:59.560Z,35
2018-02-10T13:34:09.630Z,40
2018-02-10T13:35:20.784Z,45
2018-02-10T13:36:30.844Z,40
2018-02-10T13:37:40.919Z,40
2018-02-10T13:38:50.704Z,40
2018-02-10T13:40:00.747Z,40
2018-02-10T13:41:10.528Z,40
2018-02-10T13:42:20.569Z,40
2018-02-10T13:43:30.613Z,40
2018-02-10T13:44:40.672Z,40
2018-02-10T13:45:50.461Z,35
2018-02-10T13:47:00.547Z,35
2018-02-10T13:48:10.670Z,30
2018-02-10T13:49:20.747Z,30
2018-02-10T13:50:30.805Z,35
2018-02-10T13:51:40.598Z,35
2018-02-10T13:52:50.664Z,35
2018-02-10T13:54:00.727Z,35
2018-02-10T13:55:10.527Z,35
2018-02-10T13:56:20.374Z,35
2018-02-10T13:57:30.423Z,30
2018-02-10T13:58:40.490Z,30
2018-02-10T13:59:50.310Z,25
2018-02-10T14:01:00.374Z,25
2018-02-10T14:02:10.434Z,25
2018-02-10T14:03:20.526Z,25
2018-02-10T14:04:30.585Z,25
2018-02-10T14:05:40.374Z,25
2018-02-10T14:06:49.921Z,25
2018-02-10T14:07:59.984Z,25
2018-02-10T14:09:10.047Z,25
2018-02-10T14:10:20.112Z,25
2018-02-10T14:11:29.912Z,25
2018-02-10T14:12:39.701Z,25
2018-02-10T14:13:49.245Z,20
2018-02-10T14:14:59.310Z,20
2018-02-10T14:16:09.096Z,20
2018-02-10T14:17:19.138Z,20
2018-02-10T14:18:29.249Z,25
2018-02-10T14:19:39.371Z,25
2018-02-10T14:20:49.434Z,20
2018-02-10T14:21:59.496Z,20
2018-02-10T14:23:09.557Z,20
2018-02-10T14:24:19.631Z,20
2018-02-10T14:25:29.426Z,20
2018-02-10T14:26:39.224Z,20
2018-02-10T14:27:49.296Z,20
2018-02-10T14:28:59.375Z,20
2018-02-10T14:30:09.463Z,20
2018-02-10T14:31:19.270Z,20
2018-02-10T14:32:29.330Z,20
2018-02-10T14:33:39.377Z,20
2018-02-10T14:34:49.170Z,20
2018-02-10T14:35:59.281Z,15
2018-02-10T14:37:09.089Z,15
2018-02-10T14:38:18.875Z,15
2018-02-10T14:39:28.933Z,15
2018-02-10T14:40:38.724Z,15
2018-02-10T14:41:48.792Z,15
2018-02-10T14:42:58.845Z,15
2018-02-10T14:44:08.903Z,10
2018-02-10T14:45:18.951Z,10
2018-02-10T14:46:28.992Z,15
2018-02-10T14:47:38.846Z,15
2018-02-10T14:48:48.924Z,15
2018-02-10T14:49:58.970Z,15
2018-02-10T14:51:08.498Z,15
2018-02-10T14:52:18.612Z,15
2018-02-10T14:53:28.398Z,15
2018-02-10T14:54:38.196Z,15
2018-02-10T14:55:48.275Z,10
2018-02-10T14:56:58.349Z,10
2018-02-10T14:58:08.179Z,10
2018-02-10T14:59:18.402Z,10
2018-02-10T15:00:28.487Z,10
2018-02-10T15:01:38.287Z,10
2018-02-10T15:02:48.606Z,10
2018-02-10T15:03:58.658Z,10
2018-02-10T15:05:08.696Z,10
2018-02-10T15:06:18.765Z,10
2018-02-10T15:07:28.836Z,10
2018-02-10T15:08:38.899Z,10
2018-02-10T15:09:48.982Z,10
2018-02-10T15:10:58.782Z,10
2018-02-10T15:12:08.618Z,10
2018-02-10T15:13:18.742Z,10
2018-02-10T15:14:28.532Z,10
2018-02-10T15:15:38.608Z,10
2018-02-10T15:16:48.404Z,10
2018-02-10T15:17:58.472Z,10
2018-02-10T15:19:08.531Z,10
2018-02-10T15:20:18.575Z,10
2018-02-10T15:21:28.645Z,5
2018-02-10T15:22:38.429Z,5
2018-02-10T15:23:48.494Z,5
2018-02-10T15:24:58.559Z,5
2018-02-10T15:26:08.625Z,5
2018-02-10T15:27:18.672Z,5
2018-02-10T15:28:28.508Z,5
2018-02-10T15:29:38.591Z,5
2018-02-10T15:30:48.639Z,5
2018-02-10T15:31:58.763Z,5
2018-02-10T15:33:08.576Z,5
2018-02-10T15:34:18.690Z,5
2018-02-10T15:35:28.787Z,5
2018-02-10T15:36:38.577Z,5
2018-02-10T15:37:48.630Z,5
2018-02-10T15:38:58.435Z,5
2018-02-10T15:40:07.762Z,0
2018-02-10T15:41:17.819Z,0
2018-02-10T15:42:27.876Z,0
2018-02-10T15:43:37.682Z,0
2018-02-10T15:44:47.491Z,0
2018-02-10T15:45:57.546Z,0
2018-02-10T15:47:07.353Z,0
2018-02-10T15:48:17.431Z,0
2018-02-10T15:49:27.501Z,0
2018-02-10T15:50:37.557Z,0
2018-02-10T15:51:47.680Z,0
2018-02-10T15:52:57.749Z,0
2018-02-10T15:54:07.781Z,0
2018-02-10T15:55:17.586Z,0
2018-02-10T15:56:27.655Z,0
2018-02-10T15:57:37.749Z,0
2018-02-10T15:58:47.853Z,0
2018-02-10T15:59:57.652Z,0
2018-02-10T16:01:07.453Z,0
2018-02-10T16:02:17.515Z,0
2018-02-10T16:03:27.612Z,0
2018-02-10T16:04:37.451Z,0
2018-02-10T16:05:47.534Z,0
2018-02-10T16:06:57.595Z,0
2018-02-10T16:08:07.384Z,0
2018-02-10T16:09:17.173Z,0
2018-02-10T16:10:27.218Z,0
2018-02-10T16:11:37.295Z,0
2018-02-10T16:12:47.357Z,0
2018-02-10T16:13:57.424Z,0
2018-02-10T16:15:07.364Z,0
2018-02-10T16:16:17.151Z,0
2018-02-10T16:17:27.228Z,0
2018-02-10T16:18:37.035Z,0
2018-02-10T16:19:47.100Z,0
2018-02-10T16:20:57.159Z,0
2018-02-10T16:22:07.225Z,0
2018-02-10T16:23:17.286Z,0
2018-02-10T16:24:27.347Z,0
2018-02-10T16:25:37.411Z,0
2018-02-10T16:26:47.222Z,0
2018-02-10T16:27:57.305Z,0
2018-02-10T16:29:07.115Z,0
2018-02-10T16:30:16.924Z,0
2018-02-10T16:31:26.480Z,0
2018-02-10T16:32:36.276Z,0
2018-02-10T16:33:46.379Z,0
2018-02-10T16:34:56.212Z,0
2018-02-10T16:36:06.303Z,0
2018-02-10T16:37:16.358Z,0
2018-02-10T16:38:26.168Z,0
2018-02-10T16:39:36.225Z,0
2018-02-10T16:40:46.321Z,0
2018-02-10T16:41:56.127Z,0
2018-02-10T16:43:06.200Z,0
2018-02-10T16:44:16.233Z,0
2018-02-10T16:45:26.299Z,0
2018-02-10T16:46:36.351Z,0
2018-02-10T16:47:45.908Z,0
2018-02-10T16:48:56.028Z,0
2018-02-10T16:50:05.578Z,0
2018-02-10T16:51:15.684Z,0
2018-02-10T16:52:25.760Z,0
2018-02-10T16:53:35.818Z,0
2018-02-10T16:54:45.864Z,0
2018-02-10T16:55:55.397Z,0
2018-02-10T16:57:05.453Z,0
2018-02-10T16:58:16.162Z,0
2018-02-10T16:59:25.774Z,0
2018-02-10T17:00:35.836Z,0
2018-02-10T17:01:45.918Z,0
2018-02-10T17:02:55.711Z,0
2018-02-10T17:04:05.772Z,0
2018-02-10T17:05:15.851Z,0
2018-02-10T17:06:25.897Z,0
2018-02-10T17:07:35.952Z,0
2018-02-10T17:08:46.024Z,0
2018-02-10T17:09:56.074Z,0
2018-02-10T17:11:05.907Z,0
2018-02-10T17:12:15.954Z,0
2018-02-10T17:13:26.045Z,0
2018-02-10T17:14:35.820Z,0
2018-02-10T17:15:45.875Z,0
2018-02-10T17:16:55.757Z,0
2018-02-10T17:18:05.605Z,0
2018-02-10T17:19:15.736Z,0
2018-02-10T17:20:25.770Z,0
2018-02-10T17:21:35.582Z,0
2018-02-10T17:22:45.633Z,0
2018-02-10T17:23:55.720Z,0
2018-02-10T17:25:05.322Z,0
2018-02-10T17:26:15.382Z,0